sensor_id;sensor_type;location;lat;lon;timestamp;pressure;altitude;pressure_sealevel;temperature;humidity
50933;BME280;36921;49.006;9.292;2023-06-26T00:01:01;98665.25;;;17.28;100.00
50933;BME280;36921;49.006;9.292;2023-06-26T00:03:26;98663.50;;;17.39;100.00
50933;BME280;36921;49.006;9.292;2023-06-26T00:05:51;98665.75;;;17.25;100.00
50933;BME280;36921;49.006;9.292;2023-06-26T00:08:17;98676.97;;;17.24;100.00
50933;BME280;36921;49.006;9.292;2023-06-26T00:10:42;98678.31;;;17.21;100.00
50933;BME280;36921;49.006;9.292;2023-06-26T00:13:07;98658.41;;;17.09;100.00
50933;BME280;36921;49.006;9.292;2023-06-26T00:15:33;98667.19;;;17.11;100.00
50933;BME280;36921;49.006;9.292;2023-06-26T00:17:58;98683.09;;;17.14;100.00
50933;BME280;36921;49.006;9.292;2023-06-26T00:20:24;98668.25;;;17.10;100.00
50933;BME280;36921;49.006;9.292;2023-06-26T00:22:50;98684.06;;;17.08;100.00
50933;BME280;36921;49.006;9.292;2023-06-26T00:25:15;98660.81;;;16.89;100.00
50933;BME280;36921;49.006;9.292;2023-06-26T00:27:41;98667.00;;;16.84;100.00
50933;BME280;36921;49.006;9.292;2023-06-26T00:30:07;98671.16;;;16.86;100.00
50933;BME280;36921;49.006;9.292;2023-06-26T00:32:33;98680.94;;;16.82;100.00
50933;BME280;36921;49.006;9.292;2023-06-26T00:34:58;98671.56;;;16.78;100.00
50933;BME280;36921;49.006;9.292;2023-06-26T00:37:23;98687.72;;;16.80;100.00
50933;BME280;36921;49.006;9.292;2023-06-26T00:39:49;98683.69;;;16.71;100.00
50933;BME280;36921;49.006;9.292;2023-06-26T00:42:14;98669.44;;;16.69;100.00
50933;BME280;36921;49.006;9.292;2023-06-26T00:44:39;98667.56;;;16.69;100.00
50933;BME280;36921;49.006;9.292;2023-06-26T00:47:05;98663.34;;;16.61;100.00
50933;BME280;36921;49.006;9.292;2023-06-26T00:49:30;98677.53;;;16.63;100.00
50933;BME280;36921;49.006;9.292;2023-06-26T00:51:56;98668.22;;;16.59;100.00
50933;BME280;36921;49.006;9.292;2023-06-26T00:54:22;98653.78;;;16.47;100.00
50933;BME280;36921;49.006;9.292;2023-06-26T00:56:47;98663.47;;;16.55;100.00
50933;BME280;36921;49.006;9.292;2023-06-26T00:59:13;98665.63;;;16.53;100.00
50933;BME280;36921;49.006;9.292;2023-06-26T01:01:39;98651.78;;;16.42;100.00
50933;BME280;36921;49.006;9.292;2023-06-26T01:04:07;98658.91;;;16.43;100.00
50933;BME280;36921;49.006;9.292;2023-06-26T01:06:33;98656.06;;;16.38;100.00
50933;BME280;36921;49.006;9.292;2023-06-26T01:09:02;98667.19;;;16.49;100.00
50933;BME280;36921;49.006;9.292;2023-06-26T01:11:28;98649.03;;;16.42;100.00
50933;BME280;36921;49.006;9.292;2023-06-26T01:13:54;98665.28;;;16.49;100.00
50933;BME280;36921;49.006;9.292;2023-06-26T01:16:22;98668.25;;;16.48;100.00
50933;BME280;36921;49.006;9.292;2023-06-26T01:18:48;98651.84;;;16.31;100.00
50933;BME280;36921;49.006;9.292;2023-06-26T01:21:14;98648.38;;;16.35;100.00
50933;BME280;36921;49.006;9.292;2023-06-26T01:23:49;98651.16;;;16.24;100.00
50933;BME280;36921;49.006;9.292;2023-06-26T01:26:22;98650.13;;;16.13;100.00
50933;BME280;36921;49.006;9.292;2023-06-26T01:28:53;98662.72;;;16.14;100.00
50933;BME280;36921;49.006;9.292;2023-06-26T01:31:19;98650.13;;;16.13;100.00
50933;BME280;36921;49.006;9.292;2023-06-26T01:33:45;98652.47;;;16.21;100.00
50933;BME280;36921;49.006;9.292;2023-06-26T01:36:11;98646.97;;;16.04;100.00
50933;BME280;36921;49.006;9.292;2023-06-26T01:38:36;98651.50;;;15.98;100.00
50933;BME280;36921;49.006;9.292;2023-06-26T01:41:02;98647.56;;;15.94;100.00
50933;BME280;36921;49.006;9.292;2023-06-26T01:43:41;98635.50;;;15.90;100.00
50933;BME280;36921;49.006;9.292;2023-06-26T01:46:36;98648.50;;;16.00;100.00
50933;BME280;36921;49.006;9.292;2023-06-26T01:49:39;98650.06;;;15.96;100.00
50933;BME280;36921;49.006;9.292;2023-06-26T01:52:28;98646.16;;;15.92;100.00
50933;BME280;36921;49.006;9.292;2023-06-26T01:57:42;98650.47;;;15.76;100.00
50933;BME280;36921;49.006;9.292;2023-06-26T02:00:09;98637.69;;;15.65;100.00
50933;BME280;36921;49.006;9.292;2023-06-26T02:02:36;98635.31;;;15.56;100.00
50933;BME280;36921;49.006;9.292;2023-06-26T02:05:01;98646.00;;;15.70;100.00
50933;BME280;36921;49.006;9.292;2023-06-26T02:07:27;98637.06;;;15.63;100.00
50933;BME280;36921;49.006;9.292;2023-06-26T02:09:52;98631.28;;;15.59;100.00
50933;BME280;36921;49.006;9.292;2023-06-26T02:12:17;98635.16;;;15.63;100.00
50933;BME280;36921;49.006;9.292;2023-06-26T02:14:43;98639.09;;;15.67;100.00
50933;BME280;36921;49.006;9.292;2023-06-26T02:17:08;98638.50;;;15.53;100.00
50933;BME280;36921;49.006;9.292;2023-06-26T02:19:34;98633.41;;;15.45;100.00
50933;BME280;36921;49.006;9.292;2023-06-26T02:21:59;98636.75;;;15.47;100.00
50933;BME280;36921;49.006;9.292;2023-06-26T02:24:25;98639.91;;;15.56;100.00
50933;BME280;36921;49.006;9.292;2023-06-26T02:26:52;98619.44;;;15.42;100.00
50933;BME280;36921;49.006;9.292;2023-06-26T02:29:17;98621.34;;;15.41;100.00
50933;BME280;36921;49.006;9.292;2023-06-26T02:31:43;98620.59;;;15.57;100.00
50933;BME280;36921;49.006;9.292;2023-06-26T02:34:08;98630.69;;;15.57;100.00
50933;BME280;36921;49.006;9.292;2023-06-26T02:36:33;98629.97;;;15.62;100.00
50933;BME280;36921;49.006;9.292;2023-06-26T02:38:58;98632.09;;;15.60;100.00
50933;BME280;36921;49.006;9.292;2023-06-26T02:41:24;98612.81;;;15.49;100.00
50933;BME280;36921;49.006;9.292;2023-06-26T02:43:49;98620.94;;;15.61;100.00
50933;BME280;36921;49.006;9.292;2023-06-26T02:46:14;98631.13;;;15.66;100.00
50933;BME280;36921;49.006;9.292;2023-06-26T02:48:40;98625.13;;;15.52;100.00
50933;BME280;36921;49.006;9.292;2023-06-26T02:51:05;98624.19;;;15.46;100.00
50933;BME280;36921;49.006;9.292;2023-06-26T02:53:31;98602.97;;;15.37;100.00
50933;BME280;36921;49.006;9.292;2023-06-26T02:55:56;98628.19;;;15.55;100.00
50933;BME280;36921;49.006;9.292;2023-06-26T02:58:21;98610.19;;;15.43;100.00
50933;BME280;36921;49.006;9.292;2023-06-26T03:00:47;98633.91;;;15.42;100.00
50933;BME280;36921;49.006;9.292;2023-06-26T03:03:12;98639.50;;;15.36;100.00
50933;BME280;36921;49.006;9.292;2023-06-26T03:05:38;98626.22;;;15.27;100.00
50933;BME280;36921;49.006;9.292;2023-06-26T03:08:03;98632.13;;;15.24;100.00
50933;BME280;36921;49.006;9.292;2023-06-26T03:10:29;98633.91;;;15.19;100.00
50933;BME280;36921;49.006;9.292;2023-06-26T03:12:54;98632.97;;;15.13;100.00
50933;BME280;36921;49.006;9.292;2023-06-26T03:15:19;98656.19;;;15.16;100.00
50933;BME280;36921;49.006;9.292;2023-06-26T03:17:45;98644.22;;;15.05;100.00
50933;BME280;36921;49.006;9.292;2023-06-26T03:20:10;98635.09;;;15.11;100.00
50933;BME280;36921;49.006;9.292;2023-06-26T03:22:36;98621.72;;;14.98;100.00
50933;BME280;36921;49.006;9.292;2023-06-26T03:25:02;98639.84;;;15.16;100.00
50933;BME280;36921;49.006;9.292;2023-06-26T03:27:28;98638.66;;;15.11;100.00
50933;BME280;36921;49.006;9.292;2023-06-26T03:29:53;98638.09;;;15.09;100.00
50933;BME280;36921;49.006;9.292;2023-06-26T03:32:18;98643.63;;;15.03;100.00
50933;BME280;36921;49.006;9.292;2023-06-26T03:34:44;98645.41;;;15.09;100.00
50933;BME280;36921;49.006;9.292;2023-06-26T03:37:09;98653.00;;;15.19;100.00
50933;BME280;36921;49.006;9.292;2023-06-26T03:39:34;98643.06;;;15.12;100.00
50933;BME280;36921;49.006;9.292;2023-06-26T03:42:00;98658.19;;;15.08;100.00
50933;BME280;36921;49.006;9.292;2023-06-26T03:44:26;98661.53;;;15.10;100.00
50933;BME280;36921;49.006;9.292;2023-06-26T03:46:52;98661.66;;;15.16;100.00
50933;BME280;36921;49.006;9.292;2023-06-26T03:49:17;98657.75;;;15.23;100.00
50933;BME280;36921;49.006;9.292;2023-06-26T03:51:44;98655.13;;;15.17;100.00
50933;BME280;36921;49.006;9.292;2023-06-26T03:54:09;98664.28;;;15.22;100.00
50933;BME280;36921;49.006;9.292;2023-06-26T03:56:35;98676.34;;;15.38;100.00
50933;BME280;36921;49.006;9.292;2023-06-26T03:59:00;98654.31;;;15.28;100.00
50933;BME280;36921;49.006;9.292;2023-06-26T04:01:25;98665.06;;;15.34;100.00
50933;BME280;36921;49.006;9.292;2023-06-26T04:03:51;98652.16;;;15.30;100.00
50933;BME280;36921;49.006;9.292;2023-06-26T04:06:16;98670.91;;;15.38;100.00
50933;BME280;36921;49.006;9.292;2023-06-26T04:08:41;98668.63;;;15.35;100.00
50933;BME280;36921;49.006;9.292;2023-06-26T04:11:07;98648.03;;;15.27;100.00
50933;BME280;36921;49.006;9.292;2023-06-26T04:13:32;98671.03;;;15.43;100.00
50933;BME280;36921;49.006;9.292;2023-06-26T04:15:57;98666.13;;;15.45;100.00
50933;BME280;36921;49.006;9.292;2023-06-26T04:18:23;98649.78;;;15.45;100.00
50933;BME280;36921;49.006;9.292;2023-06-26T04:21:17;98676.59;;;15.72;100.00
50933;BME280;36921;49.006;9.292;2023-06-26T04:23:43;98678.69;;;15.82;100.00
50933;BME280;36921;49.006;9.292;2023-06-26T04:26:09;98664.09;;;15.88;100.00
50933;BME280;36921;49.006;9.292;2023-06-26T04:28:38;98680.31;;;16.06;100.00
50933;BME280;36921;49.006;9.292;2023-06-26T04:31:03;98660.56;;;16.16;100.00
50933;BME280;36921;49.006;9.292;2023-06-26T04:33:29;98656.97;;;16.27;100.00
50933;BME280;36921;49.006;9.292;2023-06-26T04:35:54;98666.59;;;16.47;100.00
50933;BME280;36921;49.006;9.292;2023-06-26T04:38:20;98661.09;;;16.58;100.00
50933;BME280;36921;49.006;9.292;2023-06-26T04:40:47;98674.06;;;16.80;100.00
50933;BME280;36921;49.006;9.292;2023-06-26T04:43:12;98657.56;;;16.92;100.00
50933;BME280;36921;49.006;9.292;2023-06-26T04:45:37;98662.16;;;17.03;100.00
50933;BME280;36921;49.006;9.292;2023-06-26T04:48:03;98655.41;;;17.11;100.00
50933;BME280;36921;49.006;9.292;2023-06-26T04:50:30;98654.59;;;17.27;100.00
50933;BME280;36921;49.006;9.292;2023-06-26T04:52:55;98655.38;;;17.44;100.00
50933;BME280;36921;49.006;9.292;2023-06-26T04:55:21;98659.06;;;17.55;100.00
50933;BME280;36921;49.006;9.292;2023-06-26T04:57:49;98645.31;;;17.67;100.00
50933;BME280;36921;49.006;9.292;2023-06-26T05:00:14;98647.34;;;17.77;100.00
50933;BME280;36921;49.006;9.292;2023-06-26T05:02:40;98648.00;;;17.84;100.00
50933;BME280;36921;49.006;9.292;2023-06-26T05:05:06;98652.19;;;17.91;100.00
50933;BME280;36921;49.006;9.292;2023-06-26T05:07:31;98633.38;;;17.95;100.00
50933;BME280;36921;49.006;9.292;2023-06-26T05:09:56;98644.88;;;18.19;100.00
50933;BME280;36921;49.006;9.292;2023-06-26T05:12:22;98649.00;;;18.49;100.00
50933;BME280;36921;49.006;9.292;2023-06-26T05:14:47;98626.84;;;18.50;100.00
50933;BME280;36921;49.006;9.292;2023-06-26T05:17:15;98639.06;;;18.70;100.00
50933;BME280;36921;49.006;9.292;2023-06-26T05:19:41;98629.34;;;18.79;100.00
50933;BME280;36921;49.006;9.292;2023-06-26T05:22:07;98649.88;;;19.14;100.00
50933;BME280;36921;49.006;9.292;2023-06-26T05:24:38;98641.91;;;19.12;100.00
50933;BME280;36921;49.006;9.292;2023-06-26T05:27:04;98650.84;;;19.35;100.00
50933;BME280;36921;49.006;9.292;2023-06-26T05:29:31;98658.06;;;19.46;100.00
50933;BME280;36921;49.006;9.292;2023-06-26T05:31:56;98627.38;;;19.54;100.00
50933;BME280;36921;49.006;9.292;2023-06-26T05:34:23;98658.06;;;19.93;100.00
50933;BME280;36921;49.006;9.292;2023-06-26T05:36:50;98639.97;;;20.03;100.00
50933;BME280;36921;49.006;9.292;2023-06-26T05:39:16;98639.22;;;20.23;100.00
50933;BME280;36921;49.006;9.292;2023-06-26T05:41:44;98653.56;;;20.45;100.00
50933;BME280;36921;49.006;9.292;2023-06-26T05:44:09;98651.16;;;20.64;100.00
50933;BME280;36921;49.006;9.292;2023-06-26T05:46:35;98637.72;;;20.78;100.00
50933;BME280;36921;49.006;9.292;2023-06-26T05:49:00;98649.81;;;21.02;100.00
50933;BME280;36921;49.006;9.292;2023-06-26T05:51:27;98645.91;;;21.29;100.00
50933;BME280;36921;49.006;9.292;2023-06-26T05:53:52;98639.63;;;21.39;100.00
50933;BME280;36921;49.006;9.292;2023-06-26T05:56:18;98647.81;;;21.70;100.00
50933;BME280;36921;49.006;9.292;2023-06-26T05:58:44;98649.91;;;21.98;100.00
50933;BME280;36921;49.006;9.292;2023-06-26T06:01:10;98651.19;;;22.21;100.00
50933;BME280;36921;49.006;9.292;2023-06-26T06:03:35;98652.97;;;22.51;100.00
50933;BME280;36921;49.006;9.292;2023-06-26T06:06:01;98651.09;;;22.81;100.00
50933;BME280;36921;49.006;9.292;2023-06-26T06:08:26;98651.84;;;22.97;100.00
50933;BME280;36921;49.006;9.292;2023-06-26T06:10:51;98638.13;;;23.16;100.00
50933;BME280;36921;49.006;9.292;2023-06-26T06:13:17;98642.66;;;23.36;100.00
50933;BME280;36921;49.006;9.292;2023-06-26T06:15:42;98643.63;;;23.50;100.00
50933;BME280;36921;49.006;9.292;2023-06-26T06:18:07;98649.59;;;23.87;100.00
50933;BME280;36921;49.006;9.292;2023-06-26T06:20:33;98636.56;;;23.92;100.00
50933;BME280;36921;49.006;9.292;2023-06-26T06:22:58;98642.13;;;24.11;100.00
50933;BME280;36921;49.006;9.292;2023-06-26T06:25:23;98639.34;;;24.54;100.00
50933;BME280;36921;49.006;9.292;2023-06-26T06:27:49;98627.34;;;24.78;100.00
50933;BME280;36921;49.006;9.292;2023-06-26T06:30:14;98647.19;;;25.18;100.00
50933;BME280;36921;49.006;9.292;2023-06-26T06:32:39;98635.78;;;25.38;100.00
50933;BME280;36921;49.006;9.292;2023-06-26T06:35:05;98646.47;;;25.58;94.32
50933;BME280;36921;49.006;9.292;2023-06-26T06:37:38;98638.13;;;25.12;92.84
50933;BME280;36921;49.006;9.292;2023-06-26T06:40:08;98659.69;;;25.48;94.06
50933;BME280;36921;49.006;9.292;2023-06-26T06:42:34;98639.09;;;25.82;91.87
50933;BME280;36921;49.006;9.292;2023-06-26T06:44:59;98663.06;;;26.05;86.15
50933;BME280;36921;49.006;9.292;2023-06-26T06:47:25;98651.84;;;26.10;85.07
50933;BME280;36921;49.006;9.292;2023-06-26T06:49:50;98659.91;;;26.48;80.99
50933;BME280;36921;49.006;9.292;2023-06-26T06:52:15;98647.06;;;26.88;75.65
50933;BME280;36921;49.006;9.292;2023-06-26T06:54:59;98654.47;;;28.09;68.92
50933;BME280;36921;49.006;9.292;2023-06-26T06:57:24;98656.88;;;29.29;64.82
50933;BME280;36921;49.006;9.292;2023-06-26T06:59:51;98646.69;;;31.78;56.08
50933;BME280;36921;49.006;9.292;2023-06-26T07:02:17;98650.97;;;33.14;50.17
50933;BME280;36921;49.006;9.292;2023-06-26T07:04:42;98636.50;;;33.88;46.85
50933;BME280;36921;49.006;9.292;2023-06-26T07:07:08;98643.78;;;35.10;43.17
50933;BME280;36921;49.006;9.292;2023-06-26T07:09:33;98643.81;;;35.53;42.45
50933;BME280;36921;49.006;9.292;2023-06-26T07:11:59;98645.50;;;36.04;40.19
50933;BME280;36921;49.006;9.292;2023-06-26T07:14:25;98647.25;;;35.66;39.87
50933;BME280;36921;49.006;9.292;2023-06-26T07:16:50;98643.50;;;36.27;39.09
50933;BME280;36921;49.006;9.292;2023-06-26T07:19:15;98637.13;;;37.55;37.71
50933;BME280;36921;49.006;9.292;2023-06-26T07:21:41;98644.75;;;37.17;37.68
50933;BME280;36921;49.006;9.292;2023-06-26T07:24:08;98650.00;;;37.52;37.41
50933;BME280;36921;49.006;9.292;2023-06-26T07:26:33;98636.94;;;37.03;36.98
50933;BME280;36921;49.006;9.292;2023-06-26T07:28:58;98641.72;;;38.84;35.82
50933;BME280;36921;49.006;9.292;2023-06-26T07:31:24;98642.66;;;39.06;35.07
50933;BME280;36921;49.006;9.292;2023-06-26T07:33:49;98643.50;;;39.17;34.91
50933;BME280;36921;49.006;9.292;2023-06-26T07:36:14;98636.38;;;39.70;33.80
50933;BME280;36921;49.006;9.292;2023-06-26T07:38:39;98644.03;;;40.52;32.45
50933;BME280;36921;49.006;9.292;2023-06-26T07:41:05;98637.59;;;40.34;33.09
50933;BME280;36921;49.006;9.292;2023-06-26T07:43:30;98636.34;;;39.74;32.97
50933;BME280;36921;49.006;9.292;2023-06-26T07:45:56;98640.38;;;39.55;32.78
50933;BME280;36921;49.006;9.292;2023-06-26T07:48:23;98645.25;;;39.65;33.32
50933;BME280;36921;49.006;9.292;2023-06-26T07:50:49;98644.88;;;38.68;33.87
50933;BME280;36921;49.006;9.292;2023-06-26T07:53:14;98653.31;;;39.45;33.11
50933;BME280;36921;49.006;9.292;2023-06-26T07:55:39;98641.66;;;40.29;32.19
50933;BME280;36921;49.006;9.292;2023-06-26T07:58:05;98639.91;;;40.82;32.06
50933;BME280;36921;49.006;9.292;2023-06-26T08:00:30;98634.16;;;41.07;31.17
50933;BME280;36921;49.006;9.292;2023-06-26T08:02:55;98639.78;;;42.33;30.28
50933;BME280;36921;49.006;9.292;2023-06-26T08:05:21;98651.09;;;43.73;29.65
50933;BME280;36921;49.006;9.292;2023-06-26T08:07:46;98641.53;;;44.34;28.71
50933;BME280;36921;49.006;9.292;2023-06-26T08:10:12;98634.09;;;45.40;28.32
50933;BME280;36921;49.006;9.292;2023-06-26T08:12:37;98640.34;;;43.85;28.54
50933;BME280;36921;49.006;9.292;2023-06-26T08:15:05;98643.13;;;44.35;28.42
50933;BME280;36921;49.006;9.292;2023-06-26T08:17:31;98646.75;;;45.03;28.48
50933;BME280;36921;49.006;9.292;2023-06-26T08:19:56;98625.59;;;45.57;27.49
50933;BME280;36921;49.006;9.292;2023-06-26T08:22:21;98644.50;;;43.22;28.67
50933;BME280;36921;49.006;9.292;2023-06-26T08:24:47;98637.81;;;45.21;27.92
50933;BME280;36921;49.006;9.292;2023-06-26T08:27:12;98635.47;;;45.16;27.55
50933;BME280;36921;49.006;9.292;2023-06-26T08:29:37;98627.84;;;46.31;26.62
50933;BME280;36921;49.006;9.292;2023-06-26T08:32:03;98611.06;;;45.31;27.74
50933;BME280;36921;49.006;9.292;2023-06-26T08:34:28;98623.31;;;45.48;26.90
50933;BME280;36921;49.006;9.292;2023-06-26T08:36:54;98624.19;;;42.86;28.73
50933;BME280;36921;49.006;9.292;2023-06-26T08:39:19;98616.63;;;43.37;28.79
50933;BME280;36921;49.006;9.292;2023-06-26T08:41:44;98621.47;;;45.01;27.54
50933;BME280;36921;49.006;9.292;2023-06-26T08:44:10;98629.53;;;43.45;28.94
50933;BME280;36921;49.006;9.292;2023-06-26T08:46:35;98619.41;;;45.22;27.77
50933;BME280;36921;49.006;9.292;2023-06-26T08:49:05;98602.28;;;45.58;27.29
50933;BME280;36921;49.006;9.292;2023-06-26T08:51:35;98609.88;;;45.98;26.48
50933;BME280;36921;49.006;9.292;2023-06-26T08:54:06;98608.47;;;44.80;27.68
50933;BME280;36921;49.006;9.292;2023-06-26T08:56:40;98610.84;;;45.22;27.68
50933;BME280;36921;49.006;9.292;2023-06-26T08:59:07;98617.81;;;46.23;27.48
50933;BME280;36921;49.006;9.292;2023-06-26T09:01:33;98619.63;;;45.67;26.54
50933;BME280;36921;49.006;9.292;2023-06-26T09:03:59;98617.06;;;47.23;26.12
50933;BME280;36921;49.006;9.292;2023-06-26T09:06:24;98610.28;;;44.91;27.27
50933;BME280;36921;49.006;9.292;2023-06-26T09:08:49;98623.69;;;45.50;27.58
50933;BME280;36921;49.006;9.292;2023-06-26T09:11:15;98622.56;;;47.30;26.79
50933;BME280;36921;49.006;9.292;2023-06-26T09:13:40;98608.22;;;47.42;25.68
50933;BME280;36921;49.006;9.292;2023-06-26T09:16:07;98601.56;;;47.71;26.11
50933;BME280;36921;49.006;9.292;2023-06-26T09:18:33;98607.00;;;47.82;25.59
50933;BME280;36921;49.006;9.292;2023-06-26T09:20:58;98607.34;;;46.91;26.08
50933;BME280;36921;49.006;9.292;2023-06-26T09:23:24;98600.50;;;46.59;27.12
50933;BME280;36921;49.006;9.292;2023-06-26T09:25:51;98615.06;;;48.22;25.30
50933;BME280;36921;49.006;9.292;2023-06-26T09:28:16;98601.47;;;48.00;25.39
50933;BME280;36921;49.006;9.292;2023-06-26T09:30:41;98612.38;;;48.40;24.82
50933;BME280;36921;49.006;9.292;2023-06-26T09:33:17;98608.47;;;47.61;25.75
50933;BME280;36921;49.006;9.292;2023-06-26T09:35:44;98597.53;;;46.01;26.06
50933;BME280;36921;49.006;9.292;2023-06-26T09:38:10;98602.28;;;47.50;25.56
50933;BME280;36921;49.006;9.292;2023-06-26T09:40:35;98605.78;;;48.18;25.38
50933;BME280;36921;49.006;9.292;2023-06-26T09:43:04;98607.09;;;47.91;25.55
50933;BME280;36921;49.006;9.292;2023-06-26T09:45:34;98604.41;;;48.22;24.86
50933;BME280;36921;49.006;9.292;2023-06-26T09:48:01;98603.34;;;47.56;25.35
50933;BME280;36921;49.006;9.292;2023-06-26T09:50:28;98610.44;;;47.51;25.54
50933;BME280;36921;49.006;9.292;2023-06-26T09:52:55;98601.50;;;44.61;27.27
50933;BME280;36921;49.006;9.292;2023-06-26T09:55:20;98608.41;;;43.93;28.11
50933;BME280;36921;49.006;9.292;2023-06-26T09:57:52;98607.94;;;40.74;30.68
50933;BME280;36921;49.006;9.292;2023-06-26T10:00:20;98610.34;;;42.12;29.83
50933;BME280;36921;49.006;9.292;2023-06-26T10:02:45;98610.00;;;43.17;28.76
50933;BME280;36921;49.006;9.292;2023-06-26T10:05:11;98613.94;;;40.94;30.87
50933;BME280;36921;49.006;9.292;2023-06-26T10:07:37;98608.81;;;42.45;30.65
50933;BME280;36921;49.006;9.292;2023-06-26T10:10:03;98571.84;;;43.10;28.93
50933;BME280;36921;49.006;9.292;2023-06-26T10:12:31;98616.59;;;43.91;29.14
50933;BME280;36921;49.006;9.292;2023-06-26T10:14:57;98603.47;;;42.10;29.51
50933;BME280;36921;49.006;9.292;2023-06-26T10:17:25;98626.22;;;39.58;32.66
50933;BME280;36921;49.006;9.292;2023-06-26T10:19:52;98621.22;;;38.28;34.56
50933;BME280;36921;49.006;9.292;2023-06-26T10:22:20;98625.41;;;39.51;33.85
50933;BME280;36921;49.006;9.292;2023-06-26T10:24:47;98619.78;;;39.97;34.18
50933;BME280;36921;49.006;9.292;2023-06-26T10:27:21;98621.78;;;41.42;32.27
50933;BME280;36921;49.006;9.292;2023-06-26T10:30:00;98624.00;;;42.28;30.69
50933;BME280;36921;49.006;9.292;2023-06-26T10:32:27;98618.88;;;40.76;31.58
50933;BME280;36921;49.006;9.292;2023-06-26T10:34:55;98617.56;;;38.97;33.80
50933;BME280;36921;49.006;9.292;2023-06-26T10:37:47;98637.75;;;38.30;35.02
50933;BME280;36921;49.006;9.292;2023-06-26T10:40:12;98629.47;;;38.58;35.43
50933;BME280;36921;49.006;9.292;2023-06-26T10:42:39;98611.56;;;38.40;35.60
50933;BME280;36921;49.006;9.292;2023-06-26T10:45:16;98602.34;;;39.52;34.46
50933;BME280;36921;49.006;9.292;2023-06-26T10:47:42;98621.81;;;38.00;35.79
50933;BME280;36921;49.006;9.292;2023-06-26T10:50:38;98630.78;;;38.75;35.03
50933;BME280;36921;49.006;9.292;2023-06-26T10:53:11;98626.28;;;40.01;34.09
50933;BME280;36921;49.006;9.292;2023-06-26T10:55:49;98623.06;;;41.37;33.23
50933;BME280;36921;49.006;9.292;2023-06-26T11:01:14;98624.69;;;43.42;31.92
50933;BME280;36921;49.006;9.292;2023-06-26T11:03:41;98620.44;;;44.52;30.88
50933;BME280;36921;49.006;9.292;2023-06-26T11:06:19;98631.38;;;44.77;30.62
50933;BME280;36921;49.006;9.292;2023-06-26T11:08:53;98605.50;;;44.64;30.83
50933;BME280;36921;49.006;9.292;2023-06-26T11:11:20;98624.63;;;45.43;30.47
50933;BME280;36921;49.006;9.292;2023-06-26T11:13:46;98622.78;;;43.01;30.65
50933;BME280;36921;49.006;9.292;2023-06-26T11:16:13;98619.41;;;39.81;34.55
50933;BME280;36921;49.006;9.292;2023-06-26T11:18:39;98636.00;;;37.66;37.28
50933;BME280;36921;49.006;9.292;2023-06-26T11:21:08;98626.63;;;36.88;39.36
50933;BME280;36921;49.006;9.292;2023-06-26T11:23:36;98624.50;;;39.21;37.31
50933;BME280;36921;49.006;9.292;2023-06-26T11:26:15;98617.91;;;41.11;35.39
50933;BME280;36921;49.006;9.292;2023-06-26T11:28:49;98620.69;;;41.88;34.24
50933;BME280;36921;49.006;9.292;2023-06-26T11:31:31;98623.03;;;43.45;32.38
50933;BME280;36921;49.006;9.292;2023-06-26T11:34:03;98612.09;;;40.26;35.05
50933;BME280;36921;49.006;9.292;2023-06-26T11:36:29;98628.34;;;41.35;34.22
50933;BME280;36921;49.006;9.292;2023-06-26T11:38:59;98644.91;;;39.88;35.85
50933;BME280;36921;49.006;9.292;2023-06-26T11:41:27;98633.31;;;42.32;33.99
50933;BME280;36921;49.006;9.292;2023-06-26T11:43:53;98630.34;;;42.84;33.98
50933;BME280;36921;49.006;9.292;2023-06-26T11:46:21;98629.13;;;41.99;34.13
50933;BME280;36921;49.006;9.292;2023-06-26T11:48:46;98642.44;;;40.51;35.15
50933;BME280;36921;49.006;9.292;2023-06-26T11:51:13;98648.06;;;40.58;35.84
50933;BME280;36921;49.006;9.292;2023-06-26T11:53:40;98642.44;;;40.40;36.26
50933;BME280;36921;49.006;9.292;2023-06-26T11:56:10;98634.56;;;41.05;35.67
50933;BME280;36921;49.006;9.292;2023-06-26T11:58:58;98638.03;;;41.45;35.39
50933;BME280;36921;49.006;9.292;2023-06-26T12:01:27;98663.34;;;39.28;37.87
50933;BME280;36921;49.006;9.292;2023-06-26T12:03:58;98658.16;;;38.05;39.29
50933;BME280;36921;49.006;9.292;2023-06-26T12:06:23;98650.31;;;36.53;41.32
50933;BME280;36921;49.006;9.292;2023-06-26T12:08:49;98655.91;;;37.43;40.76
50933;BME280;36921;49.006;9.292;2023-06-26T12:11:14;98649.16;;;36.84;41.57
50933;BME280;36921;49.006;9.292;2023-06-26T12:13:40;98658.97;;;39.45;38.34
50933;BME280;36921;49.006;9.292;2023-06-26T12:16:05;98659.44;;;40.19;37.09
50933;BME280;36921;49.006;9.292;2023-06-26T12:18:34;98663.09;;;40.44;36.27
50933;BME280;36921;49.006;9.292;2023-06-26T12:21:00;98651.44;;;42.04;35.77
50933;BME280;36921;49.006;9.292;2023-06-26T12:23:40;98641.28;;;41.44;36.00
50933;BME280;36921;49.006;9.292;2023-06-26T12:26:19;98643.00;;;41.90;35.20
50933;BME280;36921;49.006;9.292;2023-06-26T12:28:44;98634.56;;;42.65;34.88
50933;BME280;36921;49.006;9.292;2023-06-26T12:31:17;98644.41;;;42.57;34.65
50933;BME280;36921;49.006;9.292;2023-06-26T12:33:45;98648.28;;;42.40;35.10
50933;BME280;36921;49.006;9.292;2023-06-26T12:36:13;98643.84;;;42.35;35.35
50933;BME280;36921;49.006;9.292;2023-06-26T12:38:40;98633.41;;;40.85;35.99
50933;BME280;36921;49.006;9.292;2023-06-26T12:41:14;98632.13;;;41.00;36.87
50933;BME280;36921;49.006;9.292;2023-06-26T12:43:40;98628.41;;;42.36;34.97
50933;BME280;36921;49.006;9.292;2023-06-26T12:46:06;98642.41;;;40.72;36.40
50933;BME280;36921;49.006;9.292;2023-06-26T12:48:38;98648.91;;;40.55;36.39
50933;BME280;36921;49.006;9.292;2023-06-26T12:51:14;98636.06;;;37.36;39.80
50933;BME280;36921;49.006;9.292;2023-06-26T12:53:40;98636.16;;;38.98;38.93
50933;BME280;36921;49.006;9.292;2023-06-26T12:56:06;98635.59;;;39.91;38.15
50933;BME280;36921;49.006;9.292;2023-06-26T12:58:32;98635.59;;;38.68;39.42
50933;BME280;36921;49.006;9.292;2023-06-26T13:00:58;98651.31;;;39.74;38.16